createdAt,value
2023-02-15T00:02:22.131Z,98.50
2023-02-15T00:05:23.963Z,98.84
2023-02-15T00:08:25.768Z,99.15
2023-02-15T00:11:46.437Z,99.61
2023-02-15T00:14:48.555Z,99.72
2023-02-15T00:17:50.277Z,99.53
2023-02-15T00:20:52.101Z,99.53
2023-02-15T00:23:53.892Z,99.53
2023-02-15T00:26:55.714Z,99.54
2023-02-15T00:29:57.658Z,99.56
2023-02-15T00:32:59.402Z,99.42
2023-02-15T00:36:02.205Z,99.50
2023-02-15T00:39:05.621Z,99.52
2023-02-15T00:42:07.483Z,99.17
2023-02-15T00:45:09.907Z,99.37
2023-02-15T00:48:11.665Z,99.59
2023-02-15T00:51:13.533Z,99.79
2023-02-15T00:54:15.326Z,99.64
2023-02-15T00:57:17.052Z,99.45
2023-02-15T01:00:18.976Z,99.34
2023-02-15T01:03:22.177Z,99.10
2023-02-15T01:06:24.039Z,99.07
2023-02-15T01:09:25.917Z,98.98
2023-02-15T01:12:27.846Z,99.00
2023-02-15T01:15:29.991Z,98.93
2023-02-15T01:18:32.660Z,98.83
2023-02-15T01:21:35.508Z,98.73
2023-02-15T01:24:37.452Z,98.58
2023-02-15T01:27:39.247Z,98.54
2023-02-15T01:30:42.399Z,98.40
2023-02-15T01:33:44.282Z,98.35
2023-02-15T01:36:46.004Z,98.34
2023-02-15T01:39:47.726Z,98.33
2023-02-15T01:42:56.200Z,98.40
2023-02-15T01:45:58.126Z,99.59
2023-02-15T01:49:20.991Z,99.39
2023-02-15T01:52:22.832Z,100.00
2023-02-15T01:55:26.538Z,100.00
2023-02-15T01:58:30.103Z,99.91
2023-02-15T02:01:32.188Z,100.00
2023-02-15T02:04:42.419Z,100.00
2023-02-15T02:07:46.027Z,100.00
2023-02-15T02:10:47.807Z,100.00
2023-02-15T02:13:51.705Z,99.93
2023-02-15T02:17:21.518Z,99.78
2023-02-15T02:20:38.575Z,99.61
2023-02-15T02:23:58.619Z,99.88
2023-02-15T02:27:20.614Z,99.62
2023-02-15T02:30:34.703Z,99.76
2023-02-15T02:33:52.969Z,99.73
2023-02-15T02:37:13.064Z,99.78
2023-02-15T02:40:17.774Z,99.90
2023-02-15T02:43:50.173Z,99.94
2023-02-15T02:46:55.464Z,100.00
2023-02-15T02:50:05.057Z,100.00
2023-02-15T02:53:07.181Z,100.00
2023-02-15T02:56:22.817Z,100.00
2023-02-15T02:59:29.431Z,100.00
2023-02-15T03:02:36.850Z,100.00
2023-02-15T03:05:41.243Z,100.00
2023-02-15T03:08:55.995Z,100.00
2023-02-15T03:11:57.949Z,100.00
2023-02-15T03:15:02.090Z,100.00
2023-02-15T03:18:04.581Z,100.00
2023-02-15T03:21:07.567Z,100.00
2023-02-15T03:24:16.518Z,100.00
2023-02-15T03:27:21.827Z,100.00
2023-02-15T03:30:24.300Z,100.00
2023-02-15T03:33:27.824Z,100.00
2023-02-15T03:36:43.639Z,100.00
2023-02-15T03:39:45.375Z,100.00
2023-02-15T03:42:48.738Z,100.00
2023-02-15T03:45:56.576Z,100.00
2023-02-15T03:49:11.200Z,100.00
2023-02-15T03:52:14.255Z,100.00
2023-02-15T03:55:16.108Z,100.00
2023-02-15T03:58:36.361Z,100.00
2023-02-15T04:01:59.821Z,100.00
2023-02-15T04:05:01.526Z,100.00
2023-02-15T04:08:03.567Z,100.00
2023-02-15T04:11:05.364Z,100.00
2023-02-15T04:14:27.011Z,100.00
2023-02-15T04:17:28.816Z,100.00
2023-02-15T04:20:49.194Z,100.00
2023-02-15T04:24:09.470Z,100.00
2023-02-15T04:27:11.179Z,100.00
2023-02-15T04:30:14.387Z,100.00
2023-02-15T04:33:16.214Z,100.00
2023-02-15T04:36:17.982Z,100.00
2023-02-15T04:39:19.757Z,100.00
2023-02-15T04:42:21.607Z,100.00
2023-02-15T04:45:23.376Z,100.00
2023-02-15T04:48:25.200Z,100.00
2023-02-15T04:51:27.047Z,100.00
2023-02-15T04:54:28.816Z,100.00
2023-02-15T04:57:30.630Z,100.00
2023-02-15T05:00:32.374Z,100.00
2023-02-15T05:03:34.360Z,100.00
2023-02-15T05:06:36.221Z,100.00
2023-02-15T05:09:38.176Z,100.00
2023-02-15T05:12:40.178Z,100.00
2023-02-15T05:15:44.640Z,100.00
2023-02-15T05:18:46.847Z,100.00
2023-02-15T05:21:48.569Z,100.00
2023-02-15T05:25:08.720Z,100.00
2023-02-15T05:28:22.747Z,100.00
2023-02-15T05:31:24.766Z,100.00
2023-02-15T05:34:26.762Z,100.00
2023-02-15T05:37:28.553Z,100.00
2023-02-15T05:40:30.616Z,99.96
2023-02-15T05:43:33.119Z,99.89
2023-02-15T05:46:34.974Z,99.71
2023-02-15T05:49:37.085Z,99.56
2023-02-15T05:52:38.840Z,99.58
2023-02-15T05:55:41.698Z,99.49
2023-02-15T05:58:43.564Z,99.34
2023-02-15T06:01:45.558Z,99.17
2023-02-15T06:04:47.331Z,99.06
2023-02-15T06:07:49.035Z,98.95
2023-02-15T06:10:50.833Z,98.83
2023-02-15T06:13:52.504Z,98.80
2023-02-15T06:16:54.204Z,98.75
2023-02-15T06:19:55.931Z,98.76
2023-02-15T06:22:57.709Z,98.62
2023-02-15T06:25:59.737Z,98.14
2023-02-15T06:29:01.625Z,96.68
2023-02-15T06:32:03.667Z,91.59
2023-02-15T06:35:05.813Z,84.74
2023-02-15T06:38:09.704Z,81.98
2023-02-15T06:41:11.940Z,77.27
2023-02-15T06:44:13.677Z,75.65
2023-02-15T06:47:15.595Z,75.32
2023-02-15T06:50:17.504Z,69.09
2023-02-15T06:53:19.317Z,64.57
2023-02-15T06:56:21.028Z,60.93
2023-02-15T06:59:22.817Z,59.85
2023-02-15T07:02:24.520Z,63.09
2023-02-15T07:05:32.627Z,59.31
2023-02-15T07:08:35.285Z,57.69
2023-02-15T07:11:56.052Z,56.89
2023-02-15T07:14:59.262Z,61.58
2023-02-15T07:18:01.051Z,60.00
2023-02-15T07:21:03.088Z,68.31
2023-02-15T07:24:05.019Z,70.33
2023-02-15T07:27:11.419Z,72.69
2023-02-15T07:30:16.715Z,72.84
2023-02-15T07:33:24.816Z,72.96
2023-02-15T07:36:26.666Z,74.74
2023-02-15T07:39:28.440Z,75.01
2023-02-15T07:42:31.710Z,76.93
2023-02-15T07:45:33.433Z,79.48
2023-02-15T07:48:35.940Z,82.88
2023-02-15T07:51:37.723Z,85.40
2023-02-15T07:54:39.790Z,86.45
2023-02-15T07:57:45.920Z,89.64
2023-02-15T08:01:02.653Z,89.23
2023-02-15T08:04:06.617Z,89.44
2023-02-15T08:07:08.926Z,89.89
2023-02-15T08:10:10.796Z,92.50
2023-02-15T08:13:12.572Z,92.46
2023-02-15T08:16:14.452Z,91.75
2023-02-15T08:19:20.663Z,92.67
2023-02-15T08:22:22.565Z,90.70
2023-02-15T08:25:24.254Z,90.24
2023-02-15T08:28:26.051Z,89.56
2023-02-15T08:31:28.617Z,90.21
2023-02-15T08:34:32.563Z,89.73
2023-02-15T08:37:34.370Z,89.59
2023-02-15T08:40:36.193Z,89.64
2023-02-15T08:43:39.054Z,89.30
2023-02-15T08:46:42.726Z,91.91
2023-02-15T08:49:44.783Z,89.16
2023-02-15T08:52:47.063Z,90.28
2023-02-15T08:55:59.377Z,87.90
2023-02-15T08:59:01.512Z,85.75
2023-02-15T09:02:04.174Z,85.10
2023-02-15T09:05:06.308Z,84.12
2023-02-15T09:08:08.051Z,83.84
2023-02-15T09:11:23.821Z,84.04
2023-02-15T09:14:27.125Z,82.50
2023-02-15T09:17:28.866Z,80.41
2023-02-15T09:20:30.700Z,80.89
2023-02-15T09:23:32.501Z,79.68
2023-02-15T09:26:37.664Z,78.30
2023-02-15T09:29:39.597Z,77.73
2023-02-15T09:32:41.387Z,77.09
2023-02-15T09:35:43.088Z,76.18
2023-02-15T09:38:46.674Z,75.96
2023-02-15T09:42:25.461Z,75.47
2023-02-15T09:45:49.156Z,74.57
2023-02-15T09:48:54.822Z,74.41
2023-02-15T09:52:08.673Z,73.27
2023-02-15T09:55:30.214Z,73.64
2023-02-15T09:58:44.482Z,74.11
2023-02-15T10:01:50.285Z,73.43
2023-02-15T10:05:37.040Z,72.13
2023-02-15T10:08:57.203Z,71.65
2023-02-15T10:12:36.634Z,71.76
2023-02-15T10:15:58.246Z,70.77
2023-02-15T10:19:28.545Z,70.25
2023-02-15T10:22:42.594Z,69.93
2023-02-15T10:25:48.270Z,69.21
2023-02-15T10:28:50.443Z,69.28
2023-02-15T10:31:59.401Z,69.06
2023-02-15T10:35:20.624Z,68.92
2023-02-15T10:38:31.426Z,68.05
2023-02-15T10:42:07.633Z,68.15
2023-02-15T10:45:12.256Z,67.21
2023-02-15T10:48:19.904Z,66.30
2023-02-15T10:51:50.294Z,65.83
2023-02-15T10:55:13.800Z,65.99
2023-02-15T10:58:30.702Z,65.01
2023-02-15T11:01:54.065Z,64.01
2023-02-15T11:05:09.911Z,64.64
2023-02-15T11:08:12.452Z,64.36
2023-02-15T11:11:23.416Z,63.39
2023-02-15T11:14:40.987Z,64.22
2023-02-15T11:17:45.622Z,64.84
2023-02-15T11:21:18.623Z,63.58
2023-02-15T11:24:21.806Z,64.26
2023-02-15T11:27:26.885Z,63.83
2023-02-15T11:30:45.798Z,64.16
2023-02-15T11:33:52.720Z,64.06
2023-02-15T11:36:56.489Z,63.14
2023-02-15T11:39:58.265Z,63.35
2023-02-15T11:43:03.378Z,63.45
2023-02-15T11:46:05.778Z,63.09
2023-02-15T11:49:31.700Z,62.52
2023-02-15T11:52:33.597Z,61.75
2023-02-15T11:55:36.159Z,62.53
2023-02-15T11:58:46.381Z,62.72
2023-02-15T12:01:48.313Z,62.05
2023-02-15T12:04:55.345Z,62.41
2023-02-15T12:08:02.966Z,62.37
2023-02-15T12:11:13.840Z,62.17
2023-02-15T12:14:18.490Z,62.75
2023-02-15T12:17:23.543Z,62.23
2023-02-15T12:20:35.454Z,62.35
2023-02-15T12:23:44.810Z,61.73
2023-02-15T12:26:57.296Z,61.79
2023-02-15T12:30:11.268Z,61.21
2023-02-15T12:33:25.109Z,60.58
2023-02-15T12:36:31.222Z,60.81
2023-02-15T12:39:33.639Z,61.24
2023-02-15T12:42:45.760Z,61.37
2023-02-15T12:45:47.770Z,60.04
2023-02-15T12:49:08.858Z,60.48
2023-02-15T12:52:21.105Z,59.87
2023-02-15T12:55:26.497Z,59.64
2023-02-15T12:58:33.277Z,59.32
2023-02-15T13:01:34.960Z,59.76
2023-02-15T13:04:37.474Z,59.75
2023-02-15T13:07:39.365Z,59.35
2023-02-15T13:10:54.249Z,59.20
2023-02-15T13:13:59.332Z,59.99
2023-02-15T13:17:02.719Z,60.53
2023-02-15T13:20:18.065Z,60.12
2023-02-15T13:23:28.635Z,59.86
2023-02-15T13:26:32.546Z,59.80
2023-02-15T13:29:37.245Z,59.41
2023-02-15T13:32:41.866Z,58.93
2023-02-15T13:35:53.250Z,59.38
2023-02-15T13:39:03.058Z,59.66
2023-02-15T13:42:15.767Z,59.68
2023-02-15T13:45:26.572Z,60.26
2023-02-15T13:48:56.592Z,59.90
2023-02-15T13:52:26.684Z,59.68
2023-02-15T13:55:45.680Z,59.09
2023-02-15T13:58:57.010Z,59.44
2023-02-15T14:02:19.821Z,60.84
2023-02-15T14:05:33.850Z,60.94
2023-02-15T14:08:54.696Z,60.33
2023-02-15T14:11:59.267Z,60.13
2023-02-15T14:15:25.474Z,60.44
2023-02-15T14:18:51.198Z,60.25
2023-02-15T14:21:59.263Z,60.23
2023-02-15T14:25:18.790Z,60.47
2023-02-15T14:28:36.376Z,60.32
2023-02-15T14:31:42.336Z,60.92
2023-02-15T14:34:56.521Z,60.85
2023-02-15T14:38:10.395Z,60.85
2023-02-15T14:41:32.372Z,60.65
2023-02-15T14:44:39.046Z,60.71
2023-02-15T14:47:49.852Z,61.18
2023-02-15T14:50:51.700Z,61.06
2023-02-15T14:53:53.730Z,61.50
2023-02-15T14:57:18.749Z,61.86
2023-02-15T15:00:33.295Z,62.07
2023-02-15T15:03:36.543Z,62.61
2023-02-15T15:06:40.865Z,62.99
2023-02-15T15:09:44.699Z,64.03
2023-02-15T15:12:51.665Z,64.42
2023-02-15T15:15:54.141Z,64.53
2023-02-15T15:18:56.469Z,64.72
2023-02-15T15:22:04.486Z,65.12
2023-02-15T15:25:11.848Z,65.13
2023-02-15T15:28:42.727Z,65.79
2023-02-15T15:31:49.080Z,66.37
2023-02-15T15:35:13.279Z,67.21
2023-02-15T15:38:37.179Z,67.91
2023-02-15T15:41:50.068Z,68.23
2023-02-15T15:45:24.234Z,68.66
2023-02-15T15:48:38.858Z,69.44
2023-02-15T15:51:42.419Z,69.96
2023-02-15T15:54:45.759Z,70.34
2023-02-15T15:57:51.402Z,71.13
2023-02-15T16:00:58.111Z,72.04
2023-02-15T16:04:00.543Z,72.45
2023-02-15T16:07:14.723Z,73.21
2023-02-15T16:10:24.401Z,73.62
2023-02-15T16:13:26.700Z,74.29
2023-02-15T16:16:30.070Z,74.53
2023-02-15T16:19:36.215Z,75.10
2023-02-15T16:22:39.299Z,77.71
2023-02-15T16:25:41.084Z,77.04
2023-02-15T16:29:02.554Z,77.45
2023-02-15T16:32:07.304Z,78.33
2023-02-15T16:35:14.921Z,78.41
2023-02-15T16:38:17.815Z,78.53
2023-02-15T16:41:26.711Z,78.89
2023-02-15T16:44:33.890Z,79.29
2023-02-15T16:47:41.320Z,79.90
2023-02-15T16:50:48.768Z,80.59
2023-02-15T16:53:53.066Z,80.70
2023-02-15T16:56:55.746Z,81.37
2023-02-15T17:00:04.303Z,82.07
2023-02-15T17:03:12.814Z,82.56
2023-02-15T17:06:27.238Z,82.77
2023-02-15T17:09:29.313Z,83.34
2023-02-15T17:12:57.241Z,83.38
2023-02-15T17:15:59.266Z,83.88
2023-02-15T17:19:03.694Z,84.02
2023-02-15T17:22:25.156Z,84.87
2023-02-15T17:25:36.841Z,85.03
2023-02-15T17:28:39.237Z,85.65
2023-02-15T17:31:41.721Z,85.99
2023-02-15T17:34:44.082Z,86.58
2023-02-15T17:37:51.137Z,87.15
2023-02-15T17:40:53.006Z,87.24
2023-02-15T17:43:55.199Z,87.19
2023-02-15T17:46:59.957Z,87.74
2023-02-15T17:50:03.827Z,88.40
2023-02-15T17:53:08.870Z,88.13
2023-02-15T17:56:11.138Z,87.80
2023-02-15T17:59:15.176Z,88.41
2023-02-15T18:02:36.614Z,89.19
2023-02-15T18:05:57.182Z,89.32
2023-02-15T18:09:18.422Z,89.18
2023-02-15T18:12:31.648Z,89.62
2023-02-15T18:15:33.814Z,90.29
2023-02-15T18:18:35.987Z,90.19
2023-02-15T18:21:40.517Z,90.29
2023-02-15T18:24:44.094Z,90.50
2023-02-15T18:27:48.728Z,90.19
2023-02-15T18:30:51.177Z,90.39
2023-02-15T18:33:58.817Z,90.71
2023-02-15T18:37:02.509Z,91.40
2023-02-15T18:40:07.565Z,91.26
2023-02-15T18:43:13.064Z,91.60
2023-02-15T18:46:15.497Z,93.38
2023-02-15T18:49:17.680Z,93.04
2023-02-15T18:52:26.375Z,93.59
2023-02-15T18:55:29.093Z,93.59
2023-02-15T18:58:31.107Z,93.73
2023-02-15T19:01:33.270Z,93.68
2023-02-15T19:04:36.442Z,94.06
2023-02-15T19:07:39.125Z,94.10
2023-02-15T19:10:41.254Z,94.52
2023-02-15T19:13:48.822Z,94.13
2023-02-15T19:16:50.935Z,94.51
2023-02-15T19:19:53.200Z,93.95
2023-02-15T19:22:56.629Z,94.64
2023-02-15T19:25:59.247Z,94.29
2023-02-15T19:29:02.532Z,94.59
2023-02-15T19:32:04.958Z,94.62
2023-02-15T19:35:20.177Z,94.45
2023-02-15T19:38:35.249Z,94.92
2023-02-15T19:41:38.541Z,95.48
2023-02-15T19:44:43.649Z,95.58
2023-02-15T19:47:48.204Z,95.59
2023-02-15T19:50:50.564Z,95.64
2023-02-15T19:53:54.081Z,96.57
2023-02-15T19:56:57.464Z,96.37
2023-02-15T20:00:12.331Z,96.42
2023-02-15T20:03:22.256Z,97.02
2023-02-15T20:06:24.333Z,97.02
2023-02-15T20:09:30.589Z,98.49
2023-02-15T20:12:32.856Z,98.67
2023-02-15T20:15:35.809Z,98.09
2023-02-15T20:18:38.090Z,99.40
2023-02-15T20:21:41.367Z,98.83
2023-02-15T20:24:43.463Z,98.73
2023-02-15T20:27:45.908Z,98.73
2023-02-15T20:30:48.382Z,98.50
2023-02-15T20:33:51.491Z,98.26
2023-02-15T20:36:54.900Z,98.15
2023-02-15T20:39:56.983Z,98.67
2023-02-15T20:42:58.838Z,98.52
2023-02-15T20:46:01.405Z,98.59
2023-02-15T20:49:03.909Z,99.00
2023-02-15T20:52:19.301Z,98.85
2023-02-15T20:55:27.017Z,98.90
2023-02-15T20:58:30.528Z,98.93
2023-02-15T21:01:32.688Z,98.79
2023-02-15T21:04:35.880Z,98.39
2023-02-15T21:07:38.386Z,98.38
2023-02-15T21:10:45.252Z,98.27
2023-02-15T21:13:47.913Z,98.28
2023-02-15T21:16:50.911Z,98.23
2023-02-15T21:19:53.044Z,98.35
2023-02-15T21:22:55.869Z,98.16
2023-02-15T21:25:58.012Z,98.02
2023-02-15T21:28:59.768Z,98.22
2023-02-15T21:32:03.858Z,98.17
2023-02-15T21:35:06.311Z,98.15
2023-02-15T21:38:14.271Z,98.19
2023-02-15T21:41:42.629Z,98.01
2023-02-15T21:45:03.022Z,97.92
2023-02-15T21:48:05.141Z,97.93
2023-02-15T21:51:26.314Z,97.80
2023-02-15T21:54:28.318Z,100.00
2023-02-15T21:57:30.179Z,100.00
2023-02-15T22:00:32.725Z,100.00
2023-02-15T22:03:36.632Z,100.00
2023-02-15T22:06:38.436Z,99.76
2023-02-15T22:09:40.170Z,99.45
2023-02-15T22:12:42.973Z,99.47
2023-02-15T22:15:47.191Z,99.35
2023-02-15T22:18:49.151Z,99.34
2023-02-15T22:21:50.949Z,100.00
2023-02-15T22:24:52.872Z,100.00
2023-02-15T22:27:54.903Z,100.00
2023-02-15T22:30:57.367Z,99.95
2023-02-15T22:33:59.161Z,99.76
2023-02-15T22:37:01.235Z,99.65
2023-02-15T22:40:03.601Z,99.57
2023-02-15T22:43:06.140Z,99.41
2023-02-15T22:46:14.382Z,99.08
2023-02-15T22:49:16.347Z,99.57
2023-02-15T22:52:18.899Z,99.49
2023-02-15T22:55:24.174Z,99.69
2023-02-15T22:58:27.510Z,99.35
2023-02-15T23:01:34.872Z,99.54
2023-02-15T23:04:36.641Z,99.63
2023-02-15T23:07:38.642Z,99.81
2023-02-15T23:10:42.201Z,99.97
2023-02-15T23:13:44.074Z,100.00
2023-02-15T23:16:45.911Z,99.86
2023-02-15T23:19:47.863Z,99.96
2023-02-15T23:22:49.907Z,99.92
2023-02-15T23:25:54.714Z,99.72
2023-02-15T23:28:59.354Z,99.60
2023-02-15T23:32:01.316Z,99.55
2023-02-15T23:35:14.130Z,99.53
2023-02-15T23:38:21.015Z,99.46
2023-02-15T23:41:26.378Z,99.32
2023-02-15T23:44:28.537Z,99.31
2023-02-15T23:47:51.169Z,99.22
2023-02-15T23:50:53.198Z,99.13
2023-02-15T23:53:55.052Z,98.92
2023-02-15T23:57:00.127Z,98.73
